createdAt,value
2023-09-06T00:02:16.141Z,94.19
2023-09-06T00:04:56.630Z,94.15
2023-09-06T00:07:29.741Z,94.10
2023-09-06T00:10:05.884Z,94.12
2023-09-06T00:12:48.784Z,94.22
2023-09-06T00:15:45.167Z,94.09
2023-09-06T00:18:18.362Z,94.11
2023-09-06T00:21:11.142Z,94.27
2023-09-06T00:26:47.588Z,94.46
2023-09-06T00:29:33.958Z,94.29
2023-09-06T00:32:16.853Z,94.50
2023-09-06T00:35:11.228Z,94.42
2023-09-06T00:37:47.789Z,94.40
2023-09-06T00:40:31.680Z,94.49
2023-09-06T00:43:24.783Z,94.66
2023-09-06T00:46:18.428Z,94.94
2023-09-06T00:49:11.424Z,94.77
2023-09-06T00:51:48.019Z,94.78
2023-09-06T00:54:20.887Z,94.69
2023-09-06T00:56:57.112Z,94.95
2023-09-06T00:59:44.950Z,94.89
2023-09-06T01:02:20.813Z,94.90
2023-09-06T01:05:18.266Z,94.83
2023-09-06T01:08:17.439Z,94.79
2023-09-06T01:11:22.736Z,95.00
2023-09-06T01:14:01.164Z,95.38
2023-09-06T01:16:47.153Z,95.26
2023-09-06T01:19:21.227Z,95.28
2023-09-06T01:22:10.956Z,95.48
2023-09-06T01:24:58.392Z,95.81
2023-09-06T01:27:34.344Z,95.61
2023-09-06T01:30:33.610Z,95.61
2023-09-06T01:33:29.347Z,95.57
2023-09-06T01:36:22.432Z,95.57
2023-09-06T01:39:15.454Z,95.66
2023-09-06T01:42:09.529Z,95.60
2023-09-06T01:45:03.046Z,95.75
2023-09-06T01:47:56.434Z,95.87
2023-09-06T01:50:49.676Z,96.26
2023-09-06T01:53:43.017Z,96.14
2023-09-06T01:56:18.908Z,96.00
2023-09-06T01:59:11.802Z,95.93
2023-09-06T02:01:55.056Z,95.89
2023-09-06T02:04:27.706Z,95.94
2023-09-06T02:07:20.516Z,95.91
2023-09-06T02:10:15.987Z,96.14
2023-09-06T02:12:58.752Z,96.17
2023-09-06T02:15:31.779Z,96.07
2023-09-06T02:18:27.295Z,96.11
2023-09-06T02:21:10.504Z,96.21
2023-09-06T02:24:04.345Z,96.04
2023-09-06T02:26:49.044Z,96.09
2023-09-06T02:29:25.029Z,96.32
2023-09-06T02:32:08.536Z,96.45
2023-09-06T02:34:51.461Z,96.55
2023-09-06T02:37:26.909Z,96.61
2023-09-06T02:40:13.260Z,96.68
2023-09-06T02:43:06.792Z,96.82
2023-09-06T02:45:39.498Z,96.66
2023-09-06T02:48:23.204Z,96.90
2023-09-06T02:51:11.706Z,96.88
2023-09-06T02:53:47.197Z,96.93
2023-09-06T02:56:30.610Z,96.82
2023-09-06T02:59:08.828Z,96.96
2023-09-06T03:02:06.835Z,97.20
2023-09-06T03:05:05.534Z,97.45
2023-09-06T03:08:00.162Z,97.38
2023-09-06T03:10:36.308Z,97.18
2023-09-06T03:13:30.392Z,97.29
2023-09-06T03:16:05.947Z,97.38
2023-09-06T03:18:52.557Z,97.53
2023-09-06T03:21:49.028Z,97.69
2023-09-06T03:24:32.863Z,97.85
2023-09-06T03:27:09.148Z,97.74
2023-09-06T03:29:54.958Z,97.50
2023-09-06T03:32:49.868Z,97.32
2023-09-06T03:35:47.980Z,97.21
2023-09-06T03:38:40.875Z,97.29
2023-09-06T03:41:33.848Z,97.02
2023-09-06T03:44:29.241Z,96.97
2023-09-06T03:47:22.720Z,96.97
2023-09-06T03:50:19.175Z,97.05
2023-09-06T03:53:15.383Z,97.13
2023-09-06T03:56:12.059Z,97.13
2023-09-06T03:59:05.733Z,97.19
2023-09-06T04:02:01.811Z,97.22
2023-09-06T04:04:55.765Z,97.52
2023-09-06T04:07:49.452Z,97.60
2023-09-06T04:10:45.672Z,97.83
2023-09-06T04:13:40.621Z,98.09
2023-09-06T04:16:36.710Z,98.42
2023-09-06T04:19:29.669Z,98.68
2023-09-06T04:22:22.921Z,98.94
2023-09-06T04:25:13.154Z,99.00
2023-09-06T04:27:57.581Z,99.21
2023-09-06T04:30:53.012Z,99.25
2023-09-06T04:33:46.104Z,99.36
2023-09-06T04:36:32.976Z,99.58
2023-09-06T04:39:31.687Z,99.58
2023-09-06T04:42:26.979Z,99.65
2023-09-06T04:45:14.535Z,99.68
2023-09-06T04:48:11.694Z,99.65
2023-09-06T04:51:06.013Z,99.77
2023-09-06T04:54:01.546Z,99.77
2023-09-06T04:56:59.846Z,99.83
2023-09-06T04:59:52.991Z,99.76
2023-09-06T05:02:38.762Z,99.79
2023-09-06T05:05:32.012Z,99.94
2023-09-06T05:08:25.046Z,100.00
2023-09-06T05:11:12.224Z,100.00
2023-09-06T05:14:05.564Z,100.00
2023-09-06T05:17:01.927Z,100.00
2023-09-06T05:19:38.168Z,100.00
2023-09-06T05:22:31.063Z,100.00
2023-09-06T05:25:24.618Z,100.00
2023-09-06T05:28:13.809Z,100.00
2023-09-06T05:31:07.661Z,100.00
2023-09-06T05:34:00.679Z,100.00
2023-09-06T05:36:53.434Z,100.00
2023-09-06T05:39:38.968Z,100.00
2023-09-06T05:42:32.411Z,100.00
2023-09-06T05:45:27.677Z,100.00
2023-09-06T05:48:20.794Z,100.00
2023-09-06T05:51:13.939Z,99.78
2023-09-06T05:54:07.316Z,99.62
2023-09-06T05:57:00.142Z,99.46
2023-09-06T05:59:53.354Z,99.09
2023-09-06T06:02:46.549Z,98.96
2023-09-06T06:05:43.784Z,98.51
2023-09-06T06:08:29.559Z,98.15
2023-09-06T06:11:26.020Z,97.48
2023-09-06T06:14:18.830Z,96.65
2023-09-06T06:17:04.603Z,95.65
2023-09-06T06:19:57.435Z,95.44
2023-09-06T06:22:53.606Z,94.26
2023-09-06T06:25:46.763Z,93.29
2023-09-06T06:28:40.227Z,92.32
2023-09-06T06:31:34.022Z,90.93
2023-09-06T06:34:26.607Z,89.95
2023-09-06T06:37:19.943Z,88.78
2023-09-06T06:40:16.469Z,88.28
2023-09-06T06:43:02.847Z,88.03
2023-09-06T06:45:57.764Z,86.58
2023-09-06T06:48:30.781Z,85.20
2023-09-06T06:51:13.739Z,84.74
2023-09-06T06:54:09.735Z,83.08
2023-09-06T06:56:53.098Z,82.81
2023-09-06T06:59:46.736Z,82.89
2023-09-06T07:02:23.941Z,82.74
2023-09-06T07:05:07.113Z,81.87
2023-09-06T07:07:42.658Z,79.60
2023-09-06T07:10:19.501Z,78.89
2023-09-06T07:12:55.308Z,79.05
2023-09-06T07:15:48.708Z,78.69
2023-09-06T07:18:42.537Z,78.18
2023-09-06T07:21:29.650Z,77.89
2023-09-06T07:24:23.077Z,77.44
2023-09-06T07:27:08.966Z,77.16
2023-09-06T07:29:42.855Z,76.96
2023-09-06T07:32:15.840Z,76.64
2023-09-06T07:34:52.616Z,76.35
2023-09-06T07:37:26.235Z,74.28
2023-09-06T07:40:02.228Z,74.42
2023-09-06T07:42:41.311Z,74.18
2023-09-06T07:45:34.055Z,73.37
2023-09-06T07:48:07.528Z,72.89
2023-09-06T07:50:44.033Z,72.41
2023-09-06T07:53:20.156Z,71.42
2023-09-06T07:56:00.939Z,70.75
2023-09-06T07:58:33.965Z,69.75
2023-09-06T08:01:18.046Z,69.84
2023-09-06T08:03:52.431Z,68.62
2023-09-06T08:06:25.438Z,68.33
2023-09-06T08:08:59.555Z,67.94
2023-09-06T08:11:32.379Z,68.51
2023-09-06T08:14:05.313Z,68.17
2023-09-06T08:16:38.013Z,67.27
2023-09-06T08:19:10.858Z,65.71
2023-09-06T08:21:43.961Z,65.01
2023-09-06T08:24:26.959Z,65.04
2023-09-06T08:27:02.549Z,64.14
2023-09-06T08:29:49.492Z,63.94
2023-09-06T08:32:23.898Z,63.31
2023-09-06T08:35:07.424Z,63.29
2023-09-06T08:37:40.578Z,63.43
2023-09-06T08:40:14.409Z,63.04
2023-09-06T08:42:53.630Z,61.97
2023-09-06T08:45:49.485Z,61.91
2023-09-06T08:48:44.031Z,61.32
2023-09-06T08:51:22.223Z,60.37
2023-09-06T08:54:08.736Z,60.00
2023-09-06T08:56:47.105Z,60.73
2023-09-06T08:59:33.368Z,61.35
2023-09-06T09:02:28.976Z,61.51
2023-09-06T09:05:19.106Z,61.70
2023-09-06T09:08:01.118Z,61.41
2023-09-06T09:10:37.305Z,58.97
2023-09-06T09:13:21.089Z,58.02
2023-09-06T09:15:56.572Z,57.31
2023-09-06T09:18:33.246Z,56.42
2023-09-06T09:21:26.332Z,57.58
2023-09-06T09:24:06.805Z,56.75
2023-09-06T09:27:04.440Z,56.88
2023-09-06T09:29:59.486Z,57.60
2023-09-06T09:32:36.346Z,58.31
2023-09-06T09:35:30.132Z,57.70
2023-09-06T09:38:16.960Z,56.55
2023-09-06T09:41:12.227Z,56.01
2023-09-06T09:43:48.237Z,56.31
2023-09-06T09:46:37.264Z,55.35
2023-09-06T09:49:25.353Z,55.45
2023-09-06T09:52:18.941Z,53.99
2023-09-06T09:55:12.793Z,52.54
2023-09-06T09:58:06.653Z,51.86
2023-09-06T10:00:44.434Z,52.30
2023-09-06T10:03:43.896Z,49.61
2023-09-06T10:06:37.540Z,52.59
2023-09-06T10:09:22.459Z,52.82
2023-09-06T10:12:01.800Z,51.36
2023-09-06T10:14:54.845Z,51.76
2023-09-06T10:17:41.700Z,50.77
2023-09-06T10:20:36.213Z,49.88
2023-09-06T10:23:10.012Z,50.04
2023-09-06T10:26:05.337Z,50.89
2023-09-06T10:29:02.332Z,50.33
2023-09-06T10:31:50.353Z,50.41
2023-09-06T10:34:26.205Z,48.64
2023-09-06T10:37:09.274Z,48.79
2023-09-06T10:39:55.633Z,49.40
2023-09-06T10:42:39.510Z,47.85
2023-09-06T10:45:21.285Z,46.29
2023-09-06T10:47:54.613Z,46.99
2023-09-06T10:50:31.453Z,46.87
2023-09-06T10:53:06.905Z,46.12
2023-09-06T10:55:48.789Z,46.12
2023-09-06T10:58:26.405Z,47.33
2023-09-06T11:01:19.276Z,47.47
2023-09-06T11:03:55.612Z,47.48
2023-09-06T11:06:30.583Z,45.21
2023-09-06T11:09:12.179Z,45.18
2023-09-06T11:11:45.269Z,45.68
2023-09-06T11:14:19.065Z,45.84
2023-09-06T11:16:51.996Z,45.47
2023-09-06T11:19:32.337Z,44.36
2023-09-06T11:22:12.914Z,44.21
2023-09-06T11:24:46.381Z,45.39
2023-09-06T11:27:30.607Z,44.40
2023-09-06T11:30:12.231Z,44.37
2023-09-06T11:32:45.947Z,43.54
2023-09-06T11:35:21.064Z,43.39
2023-09-06T11:37:55.361Z,43.71
2023-09-06T11:40:29.775Z,43.02
2023-09-06T11:43:05.876Z,42.40
2023-09-06T11:45:41.766Z,43.07
2023-09-06T11:48:26.198Z,43.51
2023-09-06T11:51:04.872Z,41.70
2023-09-06T11:53:40.321Z,41.67
2023-09-06T11:56:16.645Z,42.01
2023-09-06T11:58:51.968Z,43.28
2023-09-06T12:01:26.166Z,44.20
2023-09-06T12:04:02.669Z,44.62
2023-09-06T12:06:42.914Z,44.08
2023-09-06T12:09:19.409Z,43.16
2023-09-06T12:11:52.791Z,42.66
2023-09-06T12:14:35.738Z,43.30
2023-09-06T12:17:22.298Z,44.28
2023-09-06T12:20:25.019Z,44.20
2023-09-06T12:23:10.684Z,43.16
2023-09-06T12:26:06.654Z,42.40
2023-09-06T12:29:03.120Z,42.03
2023-09-06T12:31:59.300Z,43.50
2023-09-06T12:34:49.072Z,43.65
2023-09-06T12:37:37.779Z,42.82
2023-09-06T12:40:32.360Z,42.98
2023-09-06T12:43:28.282Z,42.53
2023-09-06T12:46:22.952Z,41.69
2023-09-06T12:49:16.079Z,41.60
2023-09-06T12:51:49.497Z,41.17
2023-09-06T12:54:42.376Z,41.73
2023-09-06T12:57:36.132Z,41.55
2023-09-06T13:00:19.166Z,41.74
2023-09-06T13:03:14.807Z,41.78
2023-09-06T13:06:08.104Z,43.19
2023-09-06T13:08:45.028Z,42.54
2023-09-06T13:11:21.499Z,42.32
2023-09-06T13:13:59.006Z,43.32
2023-09-06T13:16:34.204Z,43.17
2023-09-06T13:19:27.299Z,42.07
2023-09-06T13:22:20.945Z,41.04
2023-09-06T13:25:15.203Z,40.38
2023-09-06T13:27:57.687Z,40.94
2023-09-06T13:30:35.853Z,41.78
2023-09-06T13:33:18.764Z,41.67
2023-09-06T13:36:11.601Z,41.83
2023-09-06T13:38:48.386Z,42.25
2023-09-06T13:41:41.522Z,42.44
2023-09-06T13:44:18.143Z,42.37
2023-09-06T13:47:05.441Z,42.35
2023-09-06T13:49:59.758Z,42.06
2023-09-06T13:52:45.660Z,42.63
2023-09-06T13:55:39.187Z,40.56
2023-09-06T13:58:17.110Z,40.72
2023-09-06T14:01:10.098Z,40.30
2023-09-06T14:04:03.094Z,40.69
2023-09-06T14:06:47.832Z,41.16
2023-09-06T14:09:30.279Z,41.03
2023-09-06T14:12:09.374Z,40.55
2023-09-06T14:15:03.020Z,40.70
2023-09-06T14:17:36.447Z,41.29
2023-09-06T14:20:12.822Z,41.20
2023-09-06T14:22:49.495Z,41.79
2023-09-06T14:25:22.900Z,42.30
2023-09-06T14:27:56.027Z,41.42
2023-09-06T14:30:43.738Z,41.34
2023-09-06T14:33:25.085Z,41.75
2023-09-06T14:36:04.852Z,41.37
2023-09-06T14:38:51.086Z,40.95
2023-09-06T14:41:37.992Z,41.47
2023-09-06T14:44:30.887Z,40.90
2023-09-06T14:47:12.989Z,40.74
2023-09-06T14:49:47.006Z,41.09
2023-09-06T14:52:28.893Z,41.21
2023-09-06T14:55:13.980Z,40.63
2023-09-06T14:57:54.500Z,40.77
2023-09-06T15:00:48.626Z,41.18
2023-09-06T15:03:25.455Z,41.60
2023-09-06T15:06:18.689Z,40.86
2023-09-06T15:09:16.561Z,41.09
2023-09-06T15:12:02.611Z,41.52
2023-09-06T15:14:56.270Z,41.81
2023-09-06T15:17:28.993Z,42.25
2023-09-06T15:20:14.311Z,42.26
2023-09-06T15:23:09.297Z,42.24
2023-09-06T15:25:45.862Z,42.47
2023-09-06T15:28:28.943Z,41.99
2023-09-06T15:31:06.465Z,42.07
2023-09-06T15:33:59.746Z,42.47
2023-09-06T15:36:54.316Z,42.75
2023-09-06T15:39:47.447Z,43.16
2023-09-06T15:42:40.832Z,43.41
2023-09-06T15:45:33.620Z,43.44
2023-09-06T15:48:19.861Z,44.23
2023-09-06T15:51:02.836Z,44.61
2023-09-06T15:53:55.693Z,45.03
2023-09-06T15:56:51.284Z,45.26
2023-09-06T15:59:46.288Z,45.14
2023-09-06T16:02:21.513Z,45.83
2023-09-06T16:05:14.963Z,46.66
2023-09-06T16:08:09.495Z,47.12
2023-09-06T16:11:02.589Z,48.16
2023-09-06T16:13:46.002Z,48.07
2023-09-06T16:16:20.248Z,47.93
2023-09-06T16:19:13.182Z,48.80
2023-09-06T16:21:48.551Z,49.79
2023-09-06T16:24:32.788Z,50.37
2023-09-06T16:27:15.502Z,50.34
2023-09-06T16:29:52.306Z,50.13
2023-09-06T16:32:45.565Z,49.94
2023-09-06T16:35:19.011Z,50.24
2023-09-06T16:37:54.995Z,50.59
2023-09-06T16:40:28.439Z,51.16
2023-09-06T16:43:21.457Z,51.95
2023-09-06T16:46:15.764Z,52.42
2023-09-06T16:49:08.973Z,53.24
2023-09-06T16:51:45.761Z,54.24
2023-09-06T16:54:39.431Z,55.22
2023-09-06T16:57:32.550Z,55.99
2023-09-06T17:00:18.966Z,56.85
2023-09-06T17:03:11.902Z,57.80
2023-09-06T17:06:04.904Z,58.11
2023-09-06T17:08:58.580Z,60.15
2023-09-06T17:11:51.355Z,60.31
2023-09-06T17:14:44.641Z,61.19
2023-09-06T17:17:38.094Z,62.12
2023-09-06T17:20:31.063Z,63.03
2023-09-06T17:23:24.197Z,63.60
2023-09-06T17:26:10.349Z,64.10
2023-09-06T17:28:55.593Z,64.44
2023-09-06T17:31:38.915Z,65.29
2023-09-06T17:34:33.909Z,65.83
2023-09-06T17:37:26.298Z,66.23
2023-09-06T17:39:59.149Z,66.31
2023-09-06T17:42:43.079Z,67.32
2023-09-06T17:45:38.637Z,68.27
2023-09-06T17:48:28.148Z,69.19
2023-09-06T17:51:14.114Z,69.77
2023-09-06T17:54:03.740Z,69.87
2023-09-06T17:56:56.654Z,70.47
2023-09-06T17:59:31.269Z,70.73
2023-09-06T18:02:20.847Z,71.50
2023-09-06T18:05:05.434Z,72.34
2023-09-06T18:07:58.274Z,72.60
2023-09-06T18:10:52.784Z,73.57
2023-09-06T18:13:32.735Z,73.90
2023-09-06T18:16:19.447Z,74.11
2023-09-06T18:19:05.695Z,74.77
2023-09-06T18:21:58.644Z,75.27
2023-09-06T18:24:34.086Z,75.71
2023-09-06T18:27:27.925Z,75.72
2023-09-06T18:30:25.792Z,76.45
2023-09-06T18:33:20.987Z,77.15
2023-09-06T18:35:56.004Z,77.39
2023-09-06T18:38:30.317Z,77.52
2023-09-06T18:41:11.321Z,78.09
2023-09-06T18:43:48.377Z,78.29
2023-09-06T18:46:21.092Z,78.48
2023-09-06T18:49:15.494Z,78.63
2023-09-06T18:51:48.418Z,79.08
2023-09-06T18:54:21.320Z,79.70
2023-09-06T18:56:54.242Z,79.85
2023-09-06T18:59:40.772Z,79.99
2023-09-06T19:02:24.609Z,80.87
2023-09-06T19:05:23.109Z,81.26
2023-09-06T19:08:16.959Z,81.28
2023-09-06T19:10:52.796Z,81.59
2023-09-06T19:13:26.016Z,81.68
2023-09-06T19:16:11.115Z,81.71
2023-09-06T19:18:46.775Z,82.00
2023-09-06T19:21:40.099Z,82.38
2023-09-06T19:24:12.696Z,83.00
2023-09-06T19:27:02.470Z,83.14
2023-09-06T19:29:35.219Z,83.42
2023-09-06T19:32:08.563Z,83.64
2023-09-06T19:34:50.284Z,83.47
2023-09-06T19:37:26.342Z,83.37
2023-09-06T19:40:10.675Z,83.75
2023-09-06T19:43:03.353Z,84.08
2023-09-06T19:45:36.600Z,84.07
2023-09-06T19:48:10.222Z,84.16
2023-09-06T19:51:05.361Z,84.38
2023-09-06T19:53:38.259Z,84.69
2023-09-06T19:56:16.280Z,84.84
2023-09-06T19:59:00.824Z,85.14
2023-09-06T20:01:42.615Z,85.65
2023-09-06T20:04:19.146Z,85.81
2023-09-06T20:06:54.270Z,85.81
2023-09-06T20:09:29.300Z,85.86
2023-09-06T20:12:02.349Z,86.10
2023-09-06T20:14:34.979Z,86.18
2023-09-06T20:17:19.042Z,86.11
2023-09-06T20:19:51.789Z,86.32
2023-09-06T20:22:26.601Z,86.31
2023-09-06T20:25:12.392Z,86.79
2023-09-06T20:28:05.596Z,86.91
2023-09-06T20:30:42.372Z,87.34
2023-09-06T20:33:35.755Z,87.44
2023-09-06T20:36:17.152Z,87.41
2023-09-06T20:38:50.470Z,87.38
2023-09-06T20:41:23.402Z,87.53
2023-09-06T20:43:58.952Z,87.80
2023-09-06T20:46:33.470Z,88.08
2023-09-06T20:49:26.777Z,88.46
2023-09-06T20:52:19.877Z,88.76
2023-09-06T20:55:14.515Z,88.52
2023-09-06T20:57:56.969Z,88.68
2023-09-06T21:00:40.605Z,88.69
2023-09-06T21:03:25.536Z,88.78
2023-09-06T21:06:08.669Z,88.94
2023-09-06T21:09:02.050Z,89.08
2023-09-06T21:11:53.591Z,89.09
2023-09-06T21:14:46.676Z,89.62
2023-09-06T21:17:39.995Z,89.68
2023-09-06T21:20:25.085Z,90.03
2023-09-06T21:23:17.990Z,90.43
2023-09-06T21:26:13.208Z,90.37
2023-09-06T21:29:14.715Z,90.10
2023-09-06T21:32:15.036Z,89.87
2023-09-06T21:35:08.575Z,90.00
2023-09-06T21:38:01.654Z,90.11
2023-09-06T21:40:35.200Z,90.18
2023-09-06T21:43:29.018Z,90.30
2023-09-06T21:46:20.711Z,90.67
2023-09-06T21:49:13.958Z,91.25
2023-09-06T21:52:07.318Z,91.42
2023-09-06T21:55:00.482Z,91.10
2023-09-06T21:58:08.146Z,91.06
2023-09-06T22:01:03.234Z,91.18
2023-09-06T22:03:54.372Z,91.41
2023-09-06T22:06:47.351Z,91.46
2023-09-06T22:09:38.282Z,91.44
2023-09-06T22:12:29.398Z,91.81
2023-09-06T22:15:22.322Z,91.66
2023-09-06T22:18:15.120Z,91.55
2023-09-06T22:21:08.641Z,91.73
2023-09-06T22:24:01.547Z,91.65
2023-09-06T22:26:54.217Z,91.58
2023-09-06T22:29:47.144Z,91.61
2023-09-06T22:32:40.652Z,91.81
2023-09-06T22:35:33.609Z,92.04
2023-09-06T22:38:26.552Z,92.46
2023-09-06T22:41:19.393Z,92.51
2023-09-06T22:44:12.164Z,92.58
2023-09-06T22:47:04.988Z,92.82
2023-09-06T22:49:57.645Z,92.87
2023-09-06T22:52:50.699Z,92.78
2023-09-06T22:55:43.667Z,92.69
2023-09-06T22:58:36.253Z,92.75
2023-09-06T23:01:29.128Z,92.94
2023-09-06T23:04:22.001Z,93.35
2023-09-06T23:07:16.483Z,93.29
2023-09-06T23:10:11.757Z,93.30
2023-09-06T23:12:45.726Z,93.27
2023-09-06T23:15:40.363Z,93.15
2023-09-06T23:18:39.937Z,93.47
2023-09-06T23:21:39.871Z,93.47
2023-09-06T23:24:36.922Z,93.63
2023-09-06T23:27:30.975Z,93.67
2023-09-06T23:30:25.887Z,93.63
2023-09-06T23:33:26.138Z,93.65
2023-09-06T23:36:18.946Z,93.60
2023-09-06T23:39:13.057Z,93.48
2023-09-06T23:42:27.325Z,93.68
2023-09-06T23:45:24.759Z,93.54
2023-09-06T23:48:17.920Z,93.53
2023-09-06T23:51:11.499Z,93.87
2023-09-06T23:53:54.383Z,93.96
2023-09-06T23:56:47.384Z,94.12
2023-09-06T23:59:39.693Z,93.95
